Time;durP1;ratioP1;P1;durP2;ratioP2;P2;SDS_P1;SDS_P2;PMS_P1;PMS_P2;Temp;Humidity;BMP_temperature;BMP_pressure;BME280_temperature;BME280_humidity;BME280_pressure;Samples;Min_cycle;Max_cycle;Signal;HPM_P1;HPM_P2
2022/06/24 00:00:39;;;;;;;4.70;0.55;;;23.10;99.90;;;;;;10148441;29;20107;-62
2022/06/24 00:05:41;;;;;;;2.22;0.40;;;23.00;99.90;;;;;;10119757;29;20101;-62
2022/06/24 00:10:43;;;;;;;8.05;0.30;;;23.00;99.90;;;;;;10103265;29;20116;-61
2022/06/24 00:15:45;;;;;;;8.50;0.30;;;22.80;99.90;;;;;;10108162;29;20411;-61
2022/06/24 00:20:49;;;;;;;4.05;0.30;;;22.80;99.90;;;;;;10108453;29;20658;-61
2022/06/24 00:25:50;;;;;;;7.25;0.30;;;22.70;99.90;;;;;;10102540;29;20063;-63
2022/06/24 00:30:54;;;;;;;2.58;0.20;;;22.70;99.90;;;;;;10108210;29;20131;-62
2022/06/24 00:35:58;;;;;;;6.45;0.20;;;22.70;99.90;;;;;;10109384;29;20052;-62
2022/06/24 00:41:09;;;;;;;4.25;0.30;;;22.60;99.90;;;;;;10110030;29;20053;-62
2022/06/24 00:46:24;;;;;;;1.33;0.30;;;22.60;99.90;;;;;;10114213;29;20060;-62
2022/06/24 00:51:44;;;;;;;4.15;0.22;;;22.60;99.90;;;;;;10114862;29;20068;-62
2022/06/24 00:56:46;;;;;;;2.70;0.20;;;22.50;99.90;;;;;;10114307;29;20055;-63
2022/06/24 01:01:49;;;;;;;3.47;0.40;;;22.40;99.90;;;;;;10115811;29;20064;-62
2022/06/24 01:06:51;;;;;;;2.50;0.22;;;22.30;99.90;;;;;;10111050;29;20051;-61
2022/06/24 01:11:53;;;;;;;1.08;0.30;;;21.50;99.90;;;;;;10113147;29;20412;-61
2022/06/24 01:16:55;;;;;;;4.95;0.30;;;21.00;99.90;;;;;;10110911;29;20060;-60
2022/06/24 01:21:57;;;;;;;5.13;0.30;;;20.50;99.90;;;;;;10112363;29;21143;-60
2022/06/24 01:26:58;;;;;;;2.38;0.30;;;19.80;99.90;;;;;;10109984;29;20120;-60
2022/06/24 01:32:00;;;;;;;4.88;0.20;;;19.30;99.90;;;;;;10110709;29;20064;-60
2022/06/24 01:37:02;;;;;;;4.65;0.30;;;18.80;99.90;;;;;;10112297;29;20053;-59
2022/06/24 01:42:05;;;;;;;2.95;0.35;;;18.50;99.90;;;;;;10119935;29;20052;-59
2022/06/24 01:47:07;;;;;;;1.95;0.40;;;18.40;99.90;;;;;;10109705;29;20740;-60
2022/06/24 01:52:08;;;;;;;4.68;0.30;;;18.40;99.90;;;;;;10107827;29;20061;-60
2022/06/24 01:57:10;;;;;;;1.27;0.40;;;18.30;99.90;;;;;;10108160;29;20456;-60
2022/06/24 02:02:12;;;;;;;3.28;0.50;;;18.20;99.90;;;;;;10109499;29;20211;-60
2022/06/24 02:07:14;;;;;;;6.43;0.30;;;18.20;99.90;;;;;;10149042;29;20094;-61
2022/06/24 02:17:36;;;;;;;1.65;0.30;;;18.10;99.90;;;;;;10146852;29;20082;-61
2022/06/24 02:22:38;;;;;;;2.05;0.20;;;18.10;99.90;;;;;;10142873;29;20083;-60
2022/06/24 02:27:40;;;;;;;3.15;0.40;;;18.00;99.90;;;;;;10147632;29;20447;-61
2022/06/24 02:32:41;;;;;;;2.10;0.60;;;18.00;99.90;;;;;;10145689;29;20059;-59
2022/06/24 02:37:44;;;;;;;2.92;0.60;;;17.90;99.90;;;;;;10143318;29;20143;-60
2022/06/24 02:42:46;;;;;;;6.25;0.95;;;18.00;99.90;;;;;;10150919;29;20112;-60
2022/06/24 02:47:47;;;;;;;1.73;0.43;;;18.00;99.90;;;;;;10148140;29;20056;-60
2022/06/24 02:52:49;;;;;;;7.50;0.70;;;18.00;99.90;;;;;;10150803;29;20119;-60
2022/06/24 02:57:50;;;;;;;2.42;0.40;;;18.20;99.90;;;;;;10150019;29;20158;-60
2022/06/24 03:02:52;;;;;;;1.85;0.40;;;18.20;99.90;;;;;;10137472;29;20108;-60
2022/06/24 03:07:54;;;;;;;3.65;0.40;;;18.10;99.90;;;;;;10106225;29;20574;-60
2022/06/24 03:12:56;;;;;;;2.45;0.40;;;18.20;99.90;;;;;;10105347;29;20076;-60
2022/06/24 03:17:59;;;;;;;2.75;0.47;;;18.30;99.90;;;;;;10110558;29;20089;-67
2022/06/24 03:23:01;;;;;;;5.43;0.50;;;18.20;99.90;;;;;;10106068;29;20060;-68
2022/06/24 03:28:04;;;;;;;1.35;0.60;;;18.30;99.90;;;;;;10107563;29;20117;-68
2022/06/24 03:33:06;;;;;;;4.10;0.60;;;18.30;99.90;;;;;;10108276;29;20411;-67
2022/06/24 03:38:08;;;;;;;2.42;0.60;;;18.40;99.90;;;;;;10108144;29;20072;-67
2022/06/24 03:43:09;;;;;;;5.03;0.52;;;18.40;99.90;;;;;;10105748;29;20120;-68
2022/06/24 03:48:11;;;;;;;2.63;0.55;;;18.50;99.90;;;;;;10106103;29;20492;-68
2022/06/24 03:53:13;;;;;;;2.55;0.70;;;18.50;99.90;;;;;;10073360;29;20060;-68
2022/06/24 03:58:14;;;;;;;1.75;0.60;;;18.50;99.90;;;;;;10106026;29;20064;-67
2022/06/24 04:03:16;;;;;;;5.90;0.60;;;18.60;99.90;;;;;;10118843;29;20131;-67
2022/06/24 04:08:18;;;;;;;2.22;0.60;;;18.60;99.90;;;;;;10143882;29;20145;-67
2022/06/24 04:13:19;;;;;;;7.38;1.25;;;18.60;99.90;;;;;;10148580;29;20056;-67
2022/06/24 04:18:21;;;;;;;1.83;0.82;;;18.60;99.90;;;;;;10151828;29;20640;-66
2022/06/24 04:23:23;;;;;;;8.30;1.25;;;18.70;99.90;;;;;;10152757;29;20419;-66
2022/06/24 04:28:25;;;;;;;4.13;0.75;;;18.80;99.90;;;;;;10145544;29;20136;-66
2022/06/24 04:33:27;;;;;;;5.28;0.93;;;18.80;99.90;;;;;;10152738;29;20060;-66
2022/06/24 04:38:28;;;;;;;7.13;1.08;;;18.80;99.90;;;;;;10151759;29;20076;-66
2022/06/24 04:43:30;;;;;;;1.98;1.00;;;18.90;99.90;;;;;;10150869;29;20072;-65
2022/06/24 04:48:33;;;;;;;7.80;1.48;;;18.90;99.90;;;;;;10138439;29;20052;-64
2022/06/24 04:53:34;;;;;;;3.88;1.20;;;18.90;99.90;;;;;;10099260;29;20060;-65
2022/06/24 04:58:36;;;;;;;11.88;1.48;;;18.90;99.90;;;;;;10149775;29;20067;-65
2022/06/24 05:03:39;;;;;;;8.20;1.52;;;18.90;99.90;;;;;;10150897;29;20052;-65
2022/06/24 05:08:40;;;;;;;3.90;1.35;;;19.00;99.90;;;;;;10132929;29;20063;-65
2022/06/24 05:13:42;;;;;;;4.57;1.55;;;19.10;99.90;;;;;;10147955;29;20064;-66
2022/06/24 05:18:44;;;;;;;6.43;1.45;;;19.10;99.90;;;;;;10146248;29;20075;-66
2022/06/24 05:23:45;;;;;;;4.57;1.30;;;19.10;99.90;;;;;;10147895;29;20112;-67
2022/06/24 05:28:47;;;;;;;5.43;1.40;;;19.20;99.90;;;;;;10148545;29;20071;-64
2022/06/24 05:33:50;;;;;;;7.57;1.52;;;19.30;99.90;;;;;;10152179;29;20063;-65
2022/06/24 05:38:53;;;;;;;7.70;2.30;;;19.30;99.90;;;;;;10150225;29;20060;-66
2022/06/24 05:43:56;;;;;;;5.78;2.13;;;19.30;99.90;;;;;;10126517;29;20065;-65
2022/06/24 05:49:01;;;;;;;4.78;2.33;;;19.40;99.90;;;;;;10131561;29;20060;-64
2022/06/24 05:59:24;;;;;;;7.95;2.70;;;19.20;99.90;;;;;;10153057;29;20056;-66
2022/06/24 06:04:26;;;;;;;9.52;2.65;;;19.10;99.90;;;;;;10149380;29;20138;-64
2022/06/24 06:09:28;;;;;;;8.43;3.15;;;19.10;99.90;;;;;;10150863;29;20458;-64
2022/06/24 06:14:29;;;;;;;6.60;3.17;;;19.10;99.90;;;;;;10145689;29;20390;-64
2022/06/24 06:19:35;;;;;;;5.05;2.88;;;19.30;99.90;;;;;;10144037;29;20087;-64
2022/06/24 06:24:37;;;;;;;6.03;3.40;;;19.40;99.90;;;;;;10109031;29;20495;-64
2022/06/24 06:29:39;;;;;;;6.10;2.45;;;19.50;99.90;;;;;;10140115;29;20081;-64
2022/06/24 06:34:40;;;;;;;5.97;2.13;;;19.50;99.90;;;;;;10129014;29;20060;-66
2022/06/24 06:39:42;;;;;;;7.97;1.80;;;19.60;99.90;;;;;;10145544;29;20079;-65
2022/06/24 06:44:44;;;;;;;5.10;1.50;;;19.70;99.90;;;;;;10144097;29;20067;-64
2022/06/24 06:49:45;;;;;;;7.78;2.20;;;19.70;99.90;;;;;;10147308;29;20119;-65
2022/06/24 06:54:47;;;;;;;4.45;1.30;;;19.80;99.90;;;;;;10146143;29;20076;-65
2022/06/24 06:59:51;;;;;;;4.38;1.08;;;19.90;99.90;;;;;;10134029;29;20055;-65
2022/06/24 07:04:52;;;;;;;3.80;1.33;;;20.00;99.90;;;;;;10110711;29;20108;-64
2022/06/24 07:09:54;;;;;;;6.03;1.08;;;19.80;99.90;;;;;;10109604;29;20579;-65
2022/06/24 07:14:56;;;;;;;2.05;1.25;;;19.90;99.90;;;;;;10110897;29;20045;-67
2022/06/24 07:19:58;;;;;;;3.25;1.17;;;20.10;99.90;;;;;;10110546;29;20056;-66
2022/06/24 07:25:00;;;;;;;6.97;0.73;;;20.20;99.90;;;;;;10107158;29;20059;-66
2022/06/24 07:30:06;;;;;;;4.13;0.70;;;20.40;99.90;;;;;;10107997;29;20052;-65
2022/06/24 07:35:08;;;;;;;3.60;0.63;;;20.80;99.90;;;;;;10112017;29;20380;-66
2022/06/24 07:40:30;;;;;;;2.72;0.70;;;20.90;99.90;;;;;;10108338;29;20116;-66
2022/06/24 07:45:31;;;;;;;2.05;1.02;;;20.90;99.90;;;;;;10101177;29;20113;-69
2022/06/24 07:50:33;;;;;;;2.58;0.70;;;21.20;99.90;;;;;;10105755;29;20049;-67
2022/06/24 08:00:55;;;;;;;7.93;0.90;;;21.10;99.90;;;;;;10107450;29;20049;-66
2022/06/24 08:05:57;;;;;;;3.08;0.60;;;21.00;99.90;;;;;;10140000;29;20123;-66
2022/06/24 08:10:59;;;;;;;2.75;0.50;;;21.10;99.90;;;;;;10144196;29;20498;-66
2022/06/24 08:16:01;;;;;;;2.83;0.60;;;21.00;99.90;;;;;;10145136;29;20056;-66
2022/06/24 08:21:03;;;;;;;1.30;0.50;;;21.20;99.90;;;;;;10149266;29;20135;-68
2022/06/24 08:26:05;;;;;;;2.95;0.50;;;21.30;99.90;;;;;;10152026;29;20123;-67
2022/06/24 08:31:06;;;;;;;3.22;0.43;;;21.00;99.90;;;;;;10143255;29;20096;-67
2022/06/24 08:36:09;;;;;;;2.70;0.50;;;21.10;99.90;;;;;;10146210;29;20052;-67
2022/06/24 08:41:11;;;;;;;2.60;0.65;;;21.30;99.90;;;;;;10145305;29;20059;-67
2022/06/24 08:46:12;;;;;;;4.20;0.60;;;21.40;99.90;;;;;;10147618;29;20376;-67
2022/06/24 08:51:15;;;;;;;2.67;0.65;;;21.20;99.90;;;;;;10151272;29;20518;-67
2022/06/24 08:56:18;;;;;;;1.85;0.40;;;21.20;99.90;;;;;;10145382;29;20111;-67
2022/06/24 09:01:20;;;;;;;3.85;0.50;;;21.10;99.90;;;;;;10153150;29;20055;-67
2022/06/24 09:06:22;;;;;;;1.15;0.40;;;21.00;99.90;;;;;;10157346;29;20060;-67
2022/06/24 09:11:23;;;;;;;0.85;0.40;;;21.00;99.90;;;;;;10153724;29;20123;-67
2022/06/24 09:16:26;;;;;;;1.50;0.30;;;21.00;99.90;;;;;;10147487;29;20064;-67
2022/06/24 09:21:30;;;;;;;0.80;0.45;;;21.10;99.90;;;;;;10152134;29;20107;-66
2022/06/24 09:26:37;;;;;;;1.10;0.60;;;21.10;99.90;;;;;;10133461;29;20055;-67
2022/06/24 09:31:39;;;;;;;0.70;0.40;;;21.20;99.90;;;;;;10154300;29;20091;-67
2022/06/24 09:36:43;;;;;;;4.53;0.60;;;21.00;99.90;;;;;;10147675;29;20140;-66
2022/06/24 09:41:50;;;;;;;2.10;0.95;;;20.70;99.90;;;;;;10153266;29;20052;-70
2022/06/24 09:47:04;;;;;;;1.70;0.77;;;20.10;99.90;;;;;;10150000;29;20051;-66
2022/06/24 09:52:08;;;;;;;3.10;1.00;;;19.80;99.90;;;;;;10137317;29;20052;-66
2022/06/24 09:57:10;;;;;;;2.40;1.00;;;19.90;99.90;;;;;;10155436;29;20048;-66
2022/06/24 10:02:16;;;;;;;2.33;1.00;;;20.10;99.90;;;;;;10149339;29;20055;-66
2022/06/24 10:07:24;;;;;;;3.63;1.23;;;20.40;99.90;;;;;;10150465;29;20060;-66
2022/06/24 10:12:40;;;;;;;3.60;0.90;;;20.60;99.90;;;;;;10132340;29;20056;-66
2022/06/24 10:17:45;;;;;;;3.67;0.73;;;20.90;99.90;;;;;;10150184;29;20056;-67
2022/06/24 10:22:51;;;;;;;3.40;0.80;;;21.20;99.90;;;;;;10134128;29;20052;-68
2022/06/24 10:28:13;;;;;;;2.13;0.53;;;21.50;99.90;;;;;;10145787;29;20060;-67
2022/06/24 10:33:17;;;;;;;2.10;0.47;;;21.90;99.90;;;;;;10145527;29;20060;-68
2022/06/24 10:38:19;;;;;;;6.28;0.65;;;22.40;99.90;;;;;;10147152;29;20052;-69
2022/06/24 10:43:35;;;;;;;1.92;0.47;;;22.60;99.90;;;;;;10131549;29;20111;-69
2022/06/24 10:49:05;;;;;;;1.55;0.73;;;22.70;99.90;;;;;;10144935;29;20060;-69
2022/06/24 10:54:09;;;;;;;1.35;0.70;;;23.30;99.90;;;;;;10139853;29;20056;-69
2022/06/24 10:59:13;;;;;;;4.30;0.50;;;23.60;99.90;;;;;;10152437;29;20063;-69
2022/06/24 11:04:27;;;;;;;1.10;0.65;;;23.90;99.90;;;;;;10149055;29;20420;-69
2022/06/24 11:09:29;;;;;;;2.58;0.38;;;24.10;99.90;;;;;;10147636;29;20044;-69
2022/06/24 11:14:31;;;;;;;2.58;0.30;;;24.50;99.90;;;;;;10146140;29;20067;-68
2022/06/24 11:19:39;;;;;;;2.33;0.40;;;24.60;99.90;;;;;;10148314;29;20054;-68
2022/06/24 11:24:43;;;;;;;1.92;0.40;;;24.20;99.90;;;;;;10140845;29;20062;-69
2022/06/24 11:29:56;;;;;;;0.73;0.30;;;24.20;99.90;;;;;;10149698;29;20472;-68
2022/06/24 11:34:57;;;;;;;1.35;0.40;;;24.50;99.90;;;;;;10147558;29;20052;-67
2022/06/24 11:39:59;;;;;;;0.60;0.30;;;24.80;99.90;;;;;;10143006;29;20111;-68
2022/06/24 11:45:01;;;;;;;0.70;0.30;;;25.00;99.90;;;;;;10143454;29;20063;-68
2022/06/24 11:50:03;;;;;;;0.60;0.30;;;25.40;99.90;;;;;;10144827;29;20063;-68
2022/06/24 11:55:23;;;;;;;0.63;0.20;;;25.40;99.90;;;;;;10147424;29;20052;-68
2022/06/24 12:00:28;;;;;;;0.40;0.30;;;25.70;97.90;;;;;;10143083;29;20452;-69
2022/06/24 12:05:35;;;;;;;0.93;0.30;;;25.90;97.60;;;;;;10130667;29;20052;-68
2022/06/24 12:10:52;;;;;;;1.65;0.28;;;25.90;97.70;;;;;;10141513;29;20048;-68
2022/06/24 12:15:54;;;;;;;1.33;0.30;;;26.30;97.80;;;;;;10141861;29;20052;-68
2022/06/24 12:21:07;;;;;;;3.30;0.30;;;26.30;97.70;;;;;;10098758;29;20048;-68
2022/06/24 12:26:15;;;;;;;0.20;0.20;;;26.10;96.30;;;;;;10142222;29;20056;-69
2022/06/24 12:31:16;;;;;;;0.32;0.20;;;26.20;95.30;;;;;;10145847;29;20418;-68
2022/06/24 12:36:35;;;;;;;0.30;0.20;;;26.50;95.10;;;;;;10150537;29;20488;-67
2022/06/24 12:41:48;;;;;;;0.32;0.28;;;26.80;94.90;;;;;;10148094;29;20064;-67
2022/06/24 12:52:11;;;;;;;0.80;0.28;;;27.10;92.60;;;;;;10147984;29;20059;-67
2022/06/24 12:57:13;;;;;;;0.30;0.20;;;27.20;92.00;;;;;;10149802;29;20059;-67
2022/06/24 13:02:15;;;;;;;1.65;0.30;;;27.60;91.00;;;;;;10118877;29;20810;-68
2022/06/24 13:07:16;;;;;;;0.20;0.20;;;27.80;90.00;;;;;;10111078;29;20144;-67
2022/06/24 13:12:18;;;;;;;2.63;0.22;;;28.00;88.20;;;;;;10112829;29;20073;-67
2022/06/24 13:17:20;;;;;;;0.50;0.20;;;28.10;87.70;;;;;;10096806;29;20084;-67
2022/06/24 13:22:21;;;;;;;4.40;0.30;;;28.40;85.30;;;;;;10109389;29;20638;-67
2022/06/24 13:27:23;;;;;;;0.63;0.20;;;27.90;86.70;;;;;;10113278;29;20066;-66
2022/06/24 13:32:25;;;;;;;2.33;0.25;;;28.10;85.70;;;;;;10110715;29;20060;-66
2022/06/24 13:37:27;;;;;;;0.30;0.25;;;28.20;83.80;;;;;;10108794;29;20507;-65
2022/06/24 13:42:29;;;;;;;0.70;0.30;;;28.30;82.90;;;;;;10109531;29;20495;-68
2022/06/24 13:47:31;;;;;;;0.95;0.20;;;28.00;84.00;;;;;;10109259;29;20117;-66
2022/06/24 13:52:33;;;;;;;1.27;0.25;;;28.30;83.10;;;;;;10105595;29;20111;-66
2022/06/24 13:57:35;;;;;;;0.68;0.30;;;28.40;83.10;;;;;;10105658;29;20076;-66
2022/06/24 14:02:38;;;;;;;1.00;0.20;;;28.50;82.50;;;;;;10115685;29;20051;-67
2022/06/24 14:07:39;;;;;;;0.77;0.40;;;28.30;81.60;;;;;;10150859;29;20551;-66
2022/06/24 14:12:42;;;;;;;1.25;0.30;;;28.70;81.20;;;;;;10145107;29;20131;-66
2022/06/24 14:17:44;;;;;;;0.65;0.30;;;29.30;78.30;;;;;;10148125;29;20459;-66
2022/06/24 14:28:09;;;;;;;0.43;0.20;;;29.60;77.80;;;;;;10148670;29;20539;-65
2022/06/24 14:33:11;;;;;;;0.30;0.20;;;28.90;79.90;;;;;;10146253;29;20052;-66
2022/06/24 14:43:33;;;;;;;0.85;0.30;;;28.50;79.10;;;;;;10145178;29;20423;-66
2022/06/24 14:48:35;;;;;;;1.15;0.30;;;28.30;78.10;;;;;;10148297;29;20060;-66
2022/06/24 14:53:36;;;;;;;1.95;0.70;;;28.20;77.70;;;;;;10145553;29;20107;-66
2022/06/24 14:58:38;;;;;;;1.10;0.30;;;28.00;78.10;;;;;;10145039;29;20504;-66
2022/06/24 15:03:40;;;;;;;0.50;0.20;;;28.00;79.80;;;;;;10134206;29;20064;-66
2022/06/24 15:08:42;;;;;;;0.90;0.30;;;28.40;75.50;;;;;;10090965;29;20076;-66
2022/06/24 15:13:43;;;;;;;2.58;0.75;;;28.20;76.40;;;;;;10104427;29;20463;-66
2022/06/24 15:18:45;;;;;;;0.90;0.38;;;28.90;73.40;;;;;;10105817;29;20130;-65
2022/06/24 15:23:46;;;;;;;1.00;0.20;;;29.10;72.50;;;;;;10106266;29;20060;-65
2022/06/24 15:28:49;;;;;;;2.05;0.20;;;29.10;72.50;;;;;;10106292;29;20072;-66
2022/06/24 15:33:51;;;;;;;0.80;0.28;;;28.60;74.00;;;;;;10166553;23;20056;-85
2022/06/24 15:38:53;;;;;;;0.30;0.20;;;28.30;75.30;;;;;;10232920;28;20083;-86
2022/06/24 15:43:58;;;;;;;3.13;0.32;;;27.80;76.20;;;;;;10222304;29;20114;-85
2022/06/24 15:49:00;;;;;;;0.20;0.20;;;27.70;77.10;;;;;;10179994;28;20090;-85
2022/06/24 15:54:02;;;;;;;1.63;0.30;;;27.50;78.20;;;;;;10207013;28;20059;-85
2022/06/24 15:59:05;;;;;;;0.30;0.30;;;27.20;78.60;;;;;;10237046;28;20086;-86
2022/06/24 16:04:07;;;;;;;1.75;0.30;;;27.00;78.80;;;;;;10220195;28;20158;-84
2022/06/24 16:09:09;;;;;;;1.25;0.30;;;26.80;79.50;;;;;;10218347;28;20055;-86
2022/06/24 16:14:11;;;;;;;3.88;0.50;;;26.60;81.50;;;;;;10206281;28;20086;-84
2022/06/24 16:19:13;;;;;;;1.30;0.30;;;25.60;89.00;;;;;;10239502;28;20051;-84
2022/06/24 16:24:15;;;;;;;2.38;0.30;;;24.60;93.30;;;;;;10202978;28;20087;-85
2022/06/24 16:29:17;;;;;;;1.67;0.30;;;23.90;96.30;;;;;;10221068;29;20047;-85
2022/06/24 16:34:18;;;;;;;2.35;0.60;;;23.10;99.90;;;;;;10229505;28;20055;-85
2022/06/24 16:39:20;;;;;;;1.20;0.25;;;22.30;99.90;;;;;;10244902;28;20138;-85
2022/06/24 16:44:25;;;;;;;2.47;0.17;;;21.90;99.90;;;;;;10226281;29;20107;-85
2022/06/24 16:49:26;;;;;;;4.65;0.40;;;21.50;99.90;;;;;;10201055;29;20051;-86
2022/06/24 16:54:28;;;;;;;0.50;0.17;;;21.30;99.90;;;;;;10220048;28;20062;-86
2022/06/24 16:59:30;;;;;;;0.30;0.20;;;20.90;99.90;;;;;;10219278;29;20063;-86
2022/06/24 17:04:32;;;;;;;0.40;0.20;;;20.60;99.90;;;;;;10226162;28;20052;-85
2022/06/24 17:09:34;;;;;;;1.88;0.40;;;20.40;99.90;;;;;;10203656;28;20055;-87
2022/06/24 17:14:36;;;;;;;1.02;0.35;;;20.20;99.90;;;;;;10218327;29;20534;-86
2022/06/24 17:19:38;;;;;;;9.93;0.63;;;19.90;99.90;;;;;;10230749;28;20051;-87
2022/06/24 17:24:40;;;;;;;4.25;0.60;;;19.80;99.90;;;;;;10222546;28;20071;-87
2022/06/24 17:29:42;;;;;;;2.83;0.50;;;19.60;99.90;;;;;;10243657;28;20051;-88
2022/06/24 17:34:44;;;;;;;3.28;0.57;;;19.40;99.90;;;;;;10235453;28;20064;-87
2022/06/24 17:39:46;;;;;;;2.70;0.45;;;19.20;99.90;;;;;;10249661;28;20047;-87
2022/06/24 17:44:48;;;;;;;1.13;0.55;;;19.00;99.90;;;;;;10237195;29;20066;-87
2022/06/24 17:49:56;;;;;;;2.25;0.47;;;18.80;99.90;;;;;;10176158;29;20048;-87
2022/06/24 17:55:00;;;;;;;2.75;0.57;;;18.70;99.90;;;;;;10123596;29;20082;-87
2022/06/24 18:00:06;;;;;;;7.97;0.75;;;18.50;99.90;;;;;;10188626;29;20044;-87
2022/06/24 18:05:08;;;;;;;4.63;0.60;;;18.30;99.90;;;;;;10224490;29;20099;-86
2022/06/24 18:10:10;;;;;;;2.20;0.75;;;18.10;99.90;;;;;;10201480;28;20067;-87
2022/06/24 18:15:15;;;;;;;6.22;0.88;;;18.00;99.90;;;;;;10215388;28;20064;-87
2022/06/24 18:20:19;;;;;;;4.00;0.77;;;18.00;99.90;;;;;;10195797;28;20087;-87
2022/06/24 18:25:25;;;;;;;2.80;0.90;;;17.90;99.90;;;;;;10236503;28;20114;-86
2022/06/24 18:30:27;;;;;;;3.75;1.20;;;18.00;99.90;;;;;;10167360;29;20250;-86
2022/06/24 18:35:29;;;;;;;3.60;1.13;;;17.90;99.90;;;;;;10209147;28;20062;-87
2022/06/24 18:40:32;;;;;;;1.58;0.80;;;18.10;99.90;;;;;;10177762;28;20048;-86
2022/06/24 18:45:34;;;;;;;3.75;0.85;;;18.00;99.90;;;;;;10210888;28;20079;-84
2022/06/24 18:50:36;;;;;;;9.25;1.08;;;17.90;99.90;;;;;;10215488;28;20055;-83
2022/06/24 18:55:38;;;;;;;1.73;0.75;;;18.00;99.90;;;;;;10211003;28;20470;-85
2022/06/24 19:00:40;;;;;;;2.67;0.98;;;17.90;99.90;;;;;;10230529;28;20061;-86
2022/06/24 19:05:41;;;;;;;4.40;0.82;;;17.90;99.90;;;;;;10197797;28;20098;-87
2022/06/24 19:10:43;;;;;;;3.50;1.10;;;17.90;99.90;;;;;;10217972;28;20637;-88
2022/06/24 19:15:45;;;;;;;2.38;1.05;;;17.80;99.90;;;;;;10218376;28;20082;-87
2022/06/24 19:20:47;;;;;;;6.55;1.08;;;17.70;99.90;;;;;;10226437;28;20055;-87
2022/06/24 19:25:56;;;;;;;4.43;1.40;;;17.70;99.90;;;;;;10205474;28;20153;-87
2022/06/24 19:30:58;;;;;;;2.42;1.48;;;17.90;99.90;;;;;;10212609;28;20059;-87
2022/06/24 19:36:00;;;;;;;3.38;1.55;;;17.80;99.90;;;;;;10218648;28;20113;-86
2022/06/24 19:41:02;;;;;;;4.38;1.77;;;17.90;99.90;;;;;;10219022;28;20048;-87
2022/06/24 19:46:04;;;;;;;5.30;1.92;;;18.00;99.90;;;;;;10197954;28;20043;-87
2022/06/24 19:51:06;;;;;;;3.00;1.63;;;18.00;99.90;;;;;;10221906;28;20498;-87
2022/06/24 19:56:08;;;;;;;5.53;2.13;;;17.90;99.90;;;;;;10184225;28;20058;-87
2022/06/24 20:01:11;;;;;;;5.15;2.58;;;18.00;99.90;;;;;;10215087;28;20249;-87
2022/06/24 20:06:13;;;;;;;8.05;2.70;;;17.90;99.90;;;;;;10207619;28;20062;-87
2022/06/24 20:16:36;;;;;;;5.13;2.25;;;17.90;99.90;;;;;;10217322;28;20056;-88
2022/06/24 20:21:38;;;;;;;5.63;2.47;;;17.90;99.90;;;;;;10181867;28;20137;-87
2022/06/24 20:26:43;;;;;;;6.07;1.88;;;17.80;99.90;;;;;;10196303;28;20058;-87
2022/06/24 20:31:45;;;;;;;4.10;1.25;;;17.80;99.90;;;;;;10217301;28;20106;-86
2022/06/24 20:36:48;;;;;;;3.65;1.23;;;17.70;99.90;;;;;;10219786;28;20123;-87
2022/06/24 20:41:50;;;;;;;4.22;1.60;;;17.70;99.90;;;;;;10239513;28;20051;-86
2022/06/24 20:46:52;;;;;;;2.15;1.38;;;17.60;99.90;;;;;;10224007;28;20070;-86
2022/06/24 20:51:54;;;;;;;3.40;1.33;;;17.60;99.90;;;;;;10235812;28;20394;-86
2022/06/24 20:56:56;;;;;;;3.40;1.65;;;17.50;99.90;;;;;;10207044;28;20141;-85
2022/06/24 21:01:58;;;;;;;3.85;1.50;;;17.50;99.90;;;;;;10216180;28;20131;-85
2022/06/24 21:07:00;;;;;;;6.57;2.08;;;17.50;99.90;;;;;;10219829;28;20055;-87
2022/06/24 21:12:02;;;;;;;2.92;1.50;;;17.50;99.90;;;;;;10216237;28;20169;-86
2022/06/24 21:17:04;;;;;;;5.38;1.65;;;17.50;99.90;;;;;;10206129;29;20055;-87
2022/06/24 21:22:06;;;;;;;5.10;1.92;;;17.50;99.90;;;;;;10234010;28;20054;-87
2022/06/24 21:27:08;;;;;;;3.35;2.03;;;17.50;99.90;;;;;;10219173;28;20094;-88
2022/06/24 21:32:12;;;;;;;6.20;2.65;;;17.50;99.90;;;;;;10231688;28;20059;-86
2022/06/24 21:37:14;;;;;;;3.90;3.03;;;17.60;99.90;;;;;;10203931;28;20087;-85
2022/06/24 21:42:16;;;;;;;8.57;3.20;;;17.50;99.90;;;;;;10222830;28;20051;-86
2022/06/24 21:47:18;;;;;;;6.25;4.07;;;17.50;99.90;;;;;;10217874;28;20104;-87
2022/06/24 21:52:20;;;;;;;8.38;3.50;;;17.60;99.90;;;;;;10217556;28;20055;-87
2022/06/24 21:57:21;;;;;;;8.85;3.90;;;17.70;99.90;;;;;;10214162;28;20056;-86
2022/06/24 22:02:23;;;;;;;9.13;4.18;;;17.60;99.90;;;;;;10230160;28;20114;-86
2022/06/24 22:07:25;;;;;;;6.65;4.20;;;17.60;99.90;;;;;;10211051;28;20147;-86
2022/06/24 22:12:27;;;;;;;5.85;4.15;;;17.70;99.90;;;;;;10222510;29;20048;-86
2022/06/24 22:17:47;;;;;;;6.63;4.10;;;17.60;99.90;;;;;;10210734;28;20047;-86
2022/06/24 22:22:49;;;;;;;10.95;4.05;;;17.70;99.90;;;;;;10228742;28;20636;-85
2022/06/24 22:27:51;;;;;;;7.32;4.68;;;17.70;99.90;;;;;;10230701;28;20066;-86
2022/06/24 22:32:54;;;;;;;9.32;6.18;;;17.70;99.90;;;;;;10223980;28;20058;-86
2022/06/24 22:37:55;;;;;;;12.73;6.10;;;17.70;99.90;;;;;;10189540;28;20464;-85
2022/06/24 22:42:57;;;;;;;10.95;6.68;;;17.70;99.90;;;;;;10223092;28;20946;-85
2022/06/24 22:47:59;;;;;;;13.93;7.15;;;17.70;99.90;;;;;;10224418;28;20056;-86
2022/06/24 22:53:01;;;;;;;15.88;7.28;;;17.60;99.90;;;;;;10215013;28;20051;-85
2022/06/24 22:58:02;;;;;;;12.65;6.90;;;17.60;99.90;;;;;;10227249;28;20055;-84
2022/06/24 23:03:04;;;;;;;12.25;6.88;;;17.60;99.90;;;;;;10228115;28;20133;-86
2022/06/24 23:08:07;;;;;;;12.52;6.90;;;17.60;99.90;;;;;;10189688;28;20087;-86
2022/06/24 23:13:09;;;;;;;11.15;6.65;;;17.60;99.90;;;;;;10225019;28;20501;-86
2022/06/24 23:18:11;;;;;;;11.85;6.90;;;17.60;99.90;;;;;;10196266;28;20066;-86
2022/06/24 23:23:17;;;;;;;14.85;6.05;;;17.60;99.90;;;;;;10226516;28;20059;-91
2022/06/24 23:28:19;;;;;;;10.80;6.05;;;17.60;99.90;;;;;;10208900;28;20529;-86
2022/06/24 23:33:21;;;;;;;10.73;5.88;;;17.70;99.90;;;;;;10205206;28;20056;-86
2022/06/24 23:38:24;;;;;;;9.00;5.78;;;17.60;99.90;;;;;;10202826;28;20055;-86
2022/06/24 23:43:27;;;;;;;10.63;4.80;;;17.50;99.90;;;;;;10200616;28;20051;-86
2022/06/24 23:53:49;;;;;;;7.68;3.88;;;17.50;99.90;;;;;;10218823;28;20479;-86
2022/06/24 23:58:51;;;;;;;6.13;3.03;;;17.50;99.90;;;;;;10205339;28;20122;-86
